sensor_id;sensor_type;location;lat;lon;timestamp;temperature;humidity
7562;DHT22;3822;48.784;9.174;2023-03-01T00:00:48;4.60;57.20
7562;DHT22;3822;48.784;9.174;2023-03-01T00:03:14;4.60;57.20
7562;DHT22;3822;48.784;9.174;2023-03-01T00:05:44;4.50;57.10
7562;DHT22;3822;48.784;9.174;2023-03-01T00:08:11;4.50;57.20
7562;DHT22;3822;48.784;9.174;2023-03-01T00:10:37;4.50;57.20
7562;DHT22;3822;48.784;9.174;2023-03-01T00:13:04;4.50;57.30
7562;DHT22;3822;48.784;9.174;2023-03-01T00:15:32;4.50;57.30
7562;DHT22;3822;48.784;9.174;2023-03-01T00:17:58;4.50;57.40
7562;DHT22;3822;48.784;9.174;2023-03-01T00:20:24;4.50;57.40
7562;DHT22;3822;48.784;9.174;2023-03-01T00:22:50;4.40;57.40
7562;DHT22;3822;48.784;9.174;2023-03-01T00:25:17;4.40;57.60
7562;DHT22;3822;48.784;9.174;2023-03-01T00:27:43;4.40;57.60
7562;DHT22;3822;48.784;9.174;2023-03-01T00:30:09;4.40;57.70
7562;DHT22;3822;48.784;9.174;2023-03-01T00:32:36;4.40;57.70
7562;DHT22;3822;48.784;9.174;2023-03-01T00:35:02;4.30;57.80
7562;DHT22;3822;48.784;9.174;2023-03-01T00:37:29;4.30;57.80
7562;DHT22;3822;48.784;9.174;2023-03-01T00:39:56;4.30;57.90
7562;DHT22;3822;48.784;9.174;2023-03-01T00:42:23;4.30;58.00
7562;DHT22;3822;48.784;9.174;2023-03-01T00:44:49;4.30;58.00
7562;DHT22;3822;48.784;9.174;2023-03-01T00:47:15;4.30;58.10
7562;DHT22;3822;48.784;9.174;2023-03-01T00:49:41;4.20;58.10
7562;DHT22;3822;48.784;9.174;2023-03-01T00:52:08;4.20;58.10
7562;DHT22;3822;48.784;9.174;2023-03-01T00:54:34;4.20;58.20
7562;DHT22;3822;48.784;9.174;2023-03-01T00:57:00;4.20;58.30
7562;DHT22;3822;48.784;9.174;2023-03-01T00:59:26;4.20;58.40
7562;DHT22;3822;48.784;9.174;2023-03-01T01:01:53;4.10;58.60
7562;DHT22;3822;48.784;9.174;2023-03-01T01:04:19;4.10;58.70
7562;DHT22;3822;48.784;9.174;2023-03-01T01:06:46;4.10;58.80
7562;DHT22;3822;48.784;9.174;2023-03-01T01:09:14;4.10;58.80
7562;DHT22;3822;48.784;9.174;2023-03-01T01:11:45;4.10;58.90
7562;DHT22;3822;48.784;9.174;2023-03-01T01:14:13;4.10;58.90
7562;DHT22;3822;48.784;9.174;2023-03-01T01:16:40;4.10;58.90
7562;DHT22;3822;48.784;9.174;2023-03-01T01:19:07;4.10;58.90
7562;DHT22;3822;48.784;9.174;2023-03-01T01:21:35;4.10;59.00
7562;DHT22;3822;48.784;9.174;2023-03-01T01:24:03;4.10;59.00
7562;DHT22;3822;48.784;9.174;2023-03-01T01:26:31;4.10;59.00
7562;DHT22;3822;48.784;9.174;2023-03-01T01:28:59;4.10;59.10
7562;DHT22;3822;48.784;9.174;2023-03-01T01:31:26;4.00;59.00
7562;DHT22;3822;48.784;9.174;2023-03-01T01:33:53;4.00;59.10
7562;DHT22;3822;48.784;9.174;2023-03-01T01:36:20;3.90;59.20
7562;DHT22;3822;48.784;9.174;2023-03-01T01:38:47;3.90;59.30
7562;DHT22;3822;48.784;9.174;2023-03-01T01:41:14;3.80;59.40
7562;DHT22;3822;48.784;9.174;2023-03-01T01:43:42;3.80;59.50
7562;DHT22;3822;48.784;9.174;2023-03-01T01:46:18;3.70;59.60
7562;DHT22;3822;48.784;9.174;2023-03-01T01:48:52;3.70;59.60
7562;DHT22;3822;48.784;9.174;2023-03-01T01:51:23;3.70;59.70
7562;DHT22;3822;48.784;9.174;2023-03-01T01:53:53;3.60;59.80
7562;DHT22;3822;48.784;9.174;2023-03-01T01:56:22;3.60;59.90
7562;DHT22;3822;48.784;9.174;2023-03-01T01:58:49;3.60;59.90
7562;DHT22;3822;48.784;9.174;2023-03-01T02:01:16;3.60;60.40
7562;DHT22;3822;48.784;9.174;2023-03-01T02:03:42;3.40;60.60
7562;DHT22;3822;48.784;9.174;2023-03-01T02:06:17;3.40;60.60
7562;DHT22;3822;48.784;9.174;2023-03-01T02:08:45;3.40;60.70
7562;DHT22;3822;48.784;9.174;2023-03-01T02:11:13;3.30;61.00
7562;DHT22;3822;48.784;9.174;2023-03-01T02:13:44;3.30;61.20
7562;DHT22;3822;48.784;9.174;2023-03-01T02:16:13;3.30;61.40
7562;DHT22;3822;48.784;9.174;2023-03-01T02:18:40;3.20;61.40
7562;DHT22;3822;48.784;9.174;2023-03-01T02:21:26;3.20;61.40
7562;DHT22;3822;48.784;9.174;2023-03-01T02:24:14;3.30;61.50
7562;DHT22;3822;48.784;9.174;2023-03-01T02:26:47;3.20;61.40
7562;DHT22;3822;48.784;9.174;2023-03-01T02:29:15;3.30;61.60
7562;DHT22;3822;48.784;9.174;2023-03-01T02:31:42;3.30;61.80
7562;DHT22;3822;48.784;9.174;2023-03-01T02:36:52;3.30;61.80
7562;DHT22;3822;48.784;9.174;2023-03-01T02:39:22;3.20;61.70
7562;DHT22;3822;48.784;9.174;2023-03-01T02:41:53;3.30;61.90
7562;DHT22;3822;48.784;9.174;2023-03-01T02:44:20;3.30;62.20
7562;DHT22;3822;48.784;9.174;2023-03-01T02:46:48;3.30;62.10
7562;DHT22;3822;48.784;9.174;2023-03-01T02:57:10;3.30;62.30
7562;DHT22;3822;48.784;9.174;2023-03-01T02:59:37;3.30;62.20
7562;DHT22;3822;48.784;9.174;2023-03-01T03:02:18;3.40;62.30
7562;DHT22;3822;48.784;9.174;2023-03-01T03:07:54;3.40;62.30
7562;DHT22;3822;48.784;9.174;2023-03-01T03:10:28;3.30;62.30
7562;DHT22;3822;48.784;9.174;2023-03-01T03:13:01;3.40;62.50
7562;DHT22;3822;48.784;9.174;2023-03-01T03:15:29;3.40;62.50
7562;DHT22;3822;48.784;9.174;2023-03-01T03:17:57;3.40;62.60
7562;DHT22;3822;48.784;9.174;2023-03-01T03:20:24;3.40;62.80
7562;DHT22;3822;48.784;9.174;2023-03-01T03:22:52;3.30;62.70
7562;DHT22;3822;48.784;9.174;2023-03-01T03:25:20;3.30;62.80
7562;DHT22;3822;48.784;9.174;2023-03-01T03:27:47;3.40;63.00
7562;DHT22;3822;48.784;9.174;2023-03-01T03:30:16;3.40;63.00
7562;DHT22;3822;48.784;9.174;2023-03-01T03:32:44;3.40;63.00
7562;DHT22;3822;48.784;9.174;2023-03-01T03:35:22;3.40;63.00
7562;DHT22;3822;48.784;9.174;2023-03-01T03:37:50;3.40;63.10
7562;DHT22;3822;48.784;9.174;2023-03-01T03:40:33;3.40;63.10
7562;DHT22;3822;48.784;9.174;2023-03-01T03:43:06;3.40;63.10
7562;DHT22;3822;48.784;9.174;2023-03-01T03:45:33;3.30;63.10
7562;DHT22;3822;48.784;9.174;2023-03-01T03:48:01;3.30;63.10
7562;DHT22;3822;48.784;9.174;2023-03-01T03:50:30;3.30;63.20
7562;DHT22;3822;48.784;9.174;2023-03-01T03:52:56;3.30;63.30
7562;DHT22;3822;48.784;9.174;2023-03-01T03:55:23;3.40;63.40
7562;DHT22;3822;48.784;9.174;2023-03-01T03:57:53;3.40;63.60
7562;DHT22;3822;48.784;9.174;2023-03-01T04:00:22;3.40;63.70
7562;DHT22;3822;48.784;9.174;2023-03-01T04:02:49;3.40;63.70
7562;DHT22;3822;48.784;9.174;2023-03-01T04:05:17;3.40;63.80
7562;DHT22;3822;48.784;9.174;2023-03-01T04:07:45;3.40;63.90
7562;DHT22;3822;48.784;9.174;2023-03-01T04:10:13;3.40;64.00
7562;DHT22;3822;48.784;9.174;2023-03-01T04:12:40;3.30;64.00
7562;DHT22;3822;48.784;9.174;2023-03-01T04:15:09;3.30;64.00
7562;DHT22;3822;48.784;9.174;2023-03-01T04:20:09;3.30;64.20
7562;DHT22;3822;48.784;9.174;2023-03-01T04:22:58;3.40;64.70
7562;DHT22;3822;48.784;9.174;2023-03-01T04:25:40;3.40;64.40
7562;DHT22;3822;48.784;9.174;2023-03-01T04:31:16;3.40;64.40
7562;DHT22;3822;48.784;9.174;2023-03-01T04:36:31;3.40;64.60
7562;DHT22;3822;48.784;9.174;2023-03-01T04:38:58;3.40;64.60
7562;DHT22;3822;48.784;9.174;2023-03-01T04:41:24;3.40;64.90
7562;DHT22;3822;48.784;9.174;2023-03-01T04:43:51;3.40;65.00
7562;DHT22;3822;48.784;9.174;2023-03-01T04:46:20;3.40;65.10
7562;DHT22;3822;48.784;9.174;2023-03-01T04:48:46;3.40;65.10
7562;DHT22;3822;48.784;9.174;2023-03-01T04:51:13;3.40;65.20
7562;DHT22;3822;48.784;9.174;2023-03-01T04:53:39;3.40;65.20
7562;DHT22;3822;48.784;9.174;2023-03-01T04:56:06;3.40;65.20
7562;DHT22;3822;48.784;9.174;2023-03-01T04:58:33;3.50;65.40
7562;DHT22;3822;48.784;9.174;2023-03-01T05:01:00;3.50;65.30
7562;DHT22;3822;48.784;9.174;2023-03-01T05:03:28;3.50;65.40
7562;DHT22;3822;48.784;9.174;2023-03-01T05:05:58;3.50;65.40
7562;DHT22;3822;48.784;9.174;2023-03-01T05:08:26;3.10;65.10
7562;DHT22;3822;48.784;9.174;2023-03-01T05:10:52;3.50;65.80
7562;DHT22;3822;48.784;9.174;2023-03-01T05:13:20;3.60;65.90
7562;DHT22;3822;48.784;9.174;2023-03-01T05:15:48;3.40;65.70
7562;DHT22;3822;48.784;9.174;2023-03-01T05:18:19;3.40;65.70
7562;DHT22;3822;48.784;9.174;2023-03-01T05:20:45;3.50;65.70
7562;DHT22;3822;48.784;9.174;2023-03-01T05:23:11;3.50;65.70
7562;DHT22;3822;48.784;9.174;2023-03-01T05:25:38;3.60;65.80
7562;DHT22;3822;48.784;9.174;2023-03-01T05:28:06;3.60;65.70
7562;DHT22;3822;48.784;9.174;2023-03-01T05:30:35;3.60;65.70
7562;DHT22;3822;48.784;9.174;2023-03-01T05:33:02;3.60;65.70
7562;DHT22;3822;48.784;9.174;2023-03-01T05:35:28;3.60;65.70
7562;DHT22;3822;48.784;9.174;2023-03-01T05:37:55;3.60;65.70
7562;DHT22;3822;48.784;9.174;2023-03-01T05:40:22;3.60;65.70
7562;DHT22;3822;48.784;9.174;2023-03-01T05:42:53;3.60;65.70
7562;DHT22;3822;48.784;9.174;2023-03-01T05:45:21;3.60;65.70
7562;DHT22;3822;48.784;9.174;2023-03-01T05:47:48;3.70;65.80
7562;DHT22;3822;48.784;9.174;2023-03-01T05:50:19;3.70;65.90
7562;DHT22;3822;48.784;9.174;2023-03-01T05:52:48;3.70;65.80
7562;DHT22;3822;48.784;9.174;2023-03-01T05:55:20;3.80;65.90
7562;DHT22;3822;48.784;9.174;2023-03-01T05:57:47;3.80;65.90
7562;DHT22;3822;48.784;9.174;2023-03-01T06:00:14;3.80;65.90
7562;DHT22;3822;48.784;9.174;2023-03-01T06:02:42;3.80;65.80
7562;DHT22;3822;48.784;9.174;2023-03-01T06:05:08;3.80;65.80
7562;DHT22;3822;48.784;9.174;2023-03-01T06:07:36;3.80;65.90
7562;DHT22;3822;48.784;9.174;2023-03-01T06:10:03;3.80;65.90
7562;DHT22;3822;48.784;9.174;2023-03-01T06:12:35;3.80;66.00
7562;DHT22;3822;48.784;9.174;2023-03-01T06:15:03;3.70;65.90
7562;DHT22;3822;48.784;9.174;2023-03-01T06:17:31;3.80;66.10
7562;DHT22;3822;48.784;9.174;2023-03-01T06:20:07;3.80;66.10
7562;DHT22;3822;48.784;9.174;2023-03-01T06:22:35;3.80;66.00
7562;DHT22;3822;48.784;9.174;2023-03-01T06:25:02;3.80;67.00
7562;DHT22;3822;48.784;9.174;2023-03-01T06:27:28;3.90;68.90
7562;DHT22;3822;48.784;9.174;2023-03-01T06:29:55;3.90;69.90
7562;DHT22;3822;48.784;9.174;2023-03-01T06:32:21;3.90;69.40
7562;DHT22;3822;48.784;9.174;2023-03-01T06:34:47;3.90;69.10
7562;DHT22;3822;48.784;9.174;2023-03-01T06:37:14;3.90;68.70
7562;DHT22;3822;48.784;9.174;2023-03-01T06:39:40;3.80;68.10
7562;DHT22;3822;48.784;9.174;2023-03-01T06:42:07;3.70;68.10
7562;DHT22;3822;48.784;9.174;2023-03-01T06:44:34;3.70;67.90
7562;DHT22;3822;48.784;9.174;2023-03-01T06:47:00;3.60;67.80
7562;DHT22;3822;48.784;9.174;2023-03-01T06:49:27;3.60;67.80
7562;DHT22;3822;48.784;9.174;2023-03-01T06:51:53;3.60;67.70
7562;DHT22;3822;48.784;9.174;2023-03-01T06:54:20;3.60;67.70
7562;DHT22;3822;48.784;9.174;2023-03-01T06:56:48;3.70;67.80
7562;DHT22;3822;48.784;9.174;2023-03-01T06:59:15;3.70;67.60
7562;DHT22;3822;48.784;9.174;2023-03-01T07:01:42;3.80;67.60
7562;DHT22;3822;48.784;9.174;2023-03-01T07:04:09;3.80;67.50
7562;DHT22;3822;48.784;9.174;2023-03-01T07:06:36;3.80;67.40
7562;DHT22;3822;48.784;9.174;2023-03-01T07:09:02;3.80;67.40
7562;DHT22;3822;48.784;9.174;2023-03-01T07:11:29;3.80;67.40
7562;DHT22;3822;48.784;9.174;2023-03-01T07:13:55;3.90;67.40
7562;DHT22;3822;48.784;9.174;2023-03-01T07:16:22;4.60;67.80
7562;DHT22;3822;48.784;9.174;2023-03-01T07:18:49;3.90;67.10
7562;DHT22;3822;48.784;9.174;2023-03-01T07:21:15;4.00;67.10
7562;DHT22;3822;48.784;9.174;2023-03-01T07:23:42;4.00;67.00
7562;DHT22;3822;48.784;9.174;2023-03-01T07:26:09;4.00;67.00
7562;DHT22;3822;48.784;9.174;2023-03-01T07:28:35;4.00;66.90
7562;DHT22;3822;48.784;9.174;2023-03-01T07:31:04;4.00;66.80
7562;DHT22;3822;48.784;9.174;2023-03-01T07:33:32;4.00;66.80
7562;DHT22;3822;48.784;9.174;2023-03-01T07:35:58;4.00;66.80
7562;DHT22;3822;48.784;9.174;2023-03-01T07:38:27;4.00;66.80
7562;DHT22;3822;48.784;9.174;2023-03-01T07:40:57;4.00;66.80
7562;DHT22;3822;48.784;9.174;2023-03-01T07:43:24;3.80;66.60
7562;DHT22;3822;48.784;9.174;2023-03-01T07:45:51;4.10;66.70
7562;DHT22;3822;48.784;9.174;2023-03-01T07:48:17;4.10;66.60
7562;DHT22;3822;48.784;9.174;2023-03-01T07:50:44;4.10;66.50
7562;DHT22;3822;48.784;9.174;2023-03-01T07:53:10;6.10;68.10
7562;DHT22;3822;48.784;9.174;2023-03-01T07:55:36;4.10;66.70
7562;DHT22;3822;48.784;9.174;2023-03-01T07:58:03;4.10;66.70
7562;DHT22;3822;48.784;9.174;2023-03-01T08:00:29;6.00;68.60
7562;DHT22;3822;48.784;9.174;2023-03-01T08:02:58;4.10;67.00
7562;DHT22;3822;48.784;9.174;2023-03-01T08:05:25;4.20;67.10
7562;DHT22;3822;48.784;9.174;2023-03-01T08:07:51;4.20;67.00
7562;DHT22;3822;48.784;9.174;2023-03-01T08:10:18;4.20;67.10
7562;DHT22;3822;48.784;9.174;2023-03-01T08:12:45;4.20;66.90
7562;DHT22;3822;48.784;9.174;2023-03-01T08:15:11;4.20;66.80
7562;DHT22;3822;48.784;9.174;2023-03-01T08:17:38;4.20;66.80
7562;DHT22;3822;48.784;9.174;2023-03-01T08:20:04;4.10;66.90
7562;DHT22;3822;48.784;9.174;2023-03-01T08:22:32;4.20;67.10
7562;DHT22;3822;48.784;9.174;2023-03-01T08:24:59;4.20;67.00
7562;DHT22;3822;48.784;9.174;2023-03-01T08:27:26;4.30;67.10
7562;DHT22;3822;48.784;9.174;2023-03-01T08:29:52;4.40;66.90
7562;DHT22;3822;48.784;9.174;2023-03-01T08:32:18;4.40;66.60
7562;DHT22;3822;48.784;9.174;2023-03-01T08:34:48;4.40;66.60
7562;DHT22;3822;48.784;9.174;2023-03-01T08:37:14;4.50;66.50
7562;DHT22;3822;48.784;9.174;2023-03-01T08:39:40;4.50;66.40
7562;DHT22;3822;48.784;9.174;2023-03-01T08:42:07;4.60;66.50
7562;DHT22;3822;48.784;9.174;2023-03-01T08:44:33;4.60;66.50
7562;DHT22;3822;48.784;9.174;2023-03-01T08:47:00;4.50;66.50
7562;DHT22;3822;48.784;9.174;2023-03-01T08:49:28;4.50;66.40
7562;DHT22;3822;48.784;9.174;2023-03-01T08:51:54;4.50;66.50
7562;DHT22;3822;48.784;9.174;2023-03-01T08:54:21;4.50;66.90
7562;DHT22;3822;48.784;9.174;2023-03-01T08:56:48;4.50;66.50
7562;DHT22;3822;48.784;9.174;2023-03-01T08:59:15;4.40;66.40
7562;DHT22;3822;48.784;9.174;2023-03-01T09:01:42;4.40;66.40
7562;DHT22;3822;48.784;9.174;2023-03-01T09:04:11;4.40;66.40
7562;DHT22;3822;48.784;9.174;2023-03-01T09:06:38;4.50;66.40
7562;DHT22;3822;48.784;9.174;2023-03-01T09:09:04;4.50;66.60
7562;DHT22;3822;48.784;9.174;2023-03-01T09:11:33;4.50;66.30
7562;DHT22;3822;48.784;9.174;2023-03-01T09:13:59;4.50;66.10
7562;DHT22;3822;48.784;9.174;2023-03-01T09:16:26;4.50;65.90
7562;DHT22;3822;48.784;9.174;2023-03-01T09:18:53;4.50;66.00
7562;DHT22;3822;48.784;9.174;2023-03-01T09:21:20;4.50;66.00
7562;DHT22;3822;48.784;9.174;2023-03-01T09:23:49;4.50;65.90
7562;DHT22;3822;48.784;9.174;2023-03-01T09:26:17;4.50;65.80
7562;DHT22;3822;48.784;9.174;2023-03-01T09:28:45;4.50;65.90
7562;DHT22;3822;48.784;9.174;2023-03-01T09:31:13;4.50;65.90
7562;DHT22;3822;48.784;9.174;2023-03-01T09:33:42;4.60;66.00
7562;DHT22;3822;48.784;9.174;2023-03-01T09:36:14;4.60;65.90
7562;DHT22;3822;48.784;9.174;2023-03-01T09:38:43;4.60;65.90
7562;DHT22;3822;48.784;9.174;2023-03-01T09:41:58;4.70;65.90
7562;DHT22;3822;48.784;9.174;2023-03-01T09:46:47;4.80;65.70
7562;DHT22;3822;48.784;9.174;2023-03-01T09:49:15;4.80;65.40
7562;DHT22;3822;48.784;9.174;2023-03-01T09:51:47;4.80;65.60
7562;DHT22;3822;48.784;9.174;2023-03-01T09:54:22;4.80;65.70
7562;DHT22;3822;48.784;9.174;2023-03-01T10:14:23;5.20;65.20
7562;DHT22;3822;48.784;9.174;2023-03-01T10:19:52;5.30;64.20
7562;DHT22;3822;48.784;9.174;2023-03-01T10:22:19;5.30;64.40
7562;DHT22;3822;48.784;9.174;2023-03-01T10:24:48;5.30;64.20
7562;DHT22;3822;48.784;9.174;2023-03-01T10:27:21;5.40;64.20
7562;DHT22;3822;48.784;9.174;2023-03-01T10:29:59;5.50;64.10
7562;DHT22;3822;48.784;9.174;2023-03-01T10:32:32;5.60;64.10
7562;DHT22;3822;48.784;9.174;2023-03-01T10:34:59;5.70;64.00
7562;DHT22;3822;48.784;9.174;2023-03-01T10:37:27;5.80;63.70
7562;DHT22;3822;48.784;9.174;2023-03-01T10:40:00;5.90;63.70
7562;DHT22;3822;48.784;9.174;2023-03-01T10:42:36;6.00;63.20
7562;DHT22;3822;48.784;9.174;2023-03-01T10:50:42;6.20;62.50
7562;DHT22;3822;48.784;9.174;2023-03-01T10:53:20;6.40;62.60
7562;DHT22;3822;48.784;9.174;2023-03-01T10:55:47;6.40;61.90
7562;DHT22;3822;48.784;9.174;2023-03-01T10:58:24;6.70;61.80
7562;DHT22;3822;48.784;9.174;2023-03-01T11:03:44;6.70;61.60
7562;DHT22;3822;48.784;9.174;2023-03-01T11:08:41;6.90;61.00
7562;DHT22;3822;48.784;9.174;2023-03-01T11:13:54;7.20;61.10
7562;DHT22;3822;48.784;9.174;2023-03-01T11:19:13;7.40;60.90
7562;DHT22;3822;48.784;9.174;2023-03-01T11:24:47;7.80;60.60
7562;DHT22;3822;48.784;9.174;2023-03-01T11:35:39;8.20;59.00
7562;DHT22;3822;48.784;9.174;2023-03-01T11:41:31;8.40;58.00
7562;DHT22;3822;48.784;9.174;2023-03-01T11:43:57;8.50;57.90
7562;DHT22;3822;48.784;9.174;2023-03-01T11:51:31;8.80;57.10
7562;DHT22;3822;48.784;9.174;2023-03-01T11:56:49;9.00;57.20
7562;DHT22;3822;48.784;9.174;2023-03-01T12:10:52;9.70;55.90
7562;DHT22;3822;48.784;9.174;2023-03-01T12:13:43;9.90;56.30
7562;DHT22;3822;48.784;9.174;2023-03-01T12:24:04;10.30;53.40
7562;DHT22;3822;48.784;9.174;2023-03-01T12:26:53;10.50;53.50
7562;DHT22;3822;48.784;9.174;2023-03-01T12:29:38;10.60;53.40
7562;DHT22;3822;48.784;9.174;2023-03-01T12:32:27;10.80;51.50
7562;DHT22;3822;48.784;9.174;2023-03-01T12:43:13;11.20;50.70
7562;DHT22;3822;48.784;9.174;2023-03-01T12:45:57;11.30;50.90
7562;DHT22;3822;48.784;9.174;2023-03-01T12:50:59;11.50;51.30
7562;DHT22;3822;48.784;9.174;2023-03-01T12:53:28;11.70;51.00
7562;DHT22;3822;48.784;9.174;2023-03-01T12:56:01;11.90;51.30
7562;DHT22;3822;48.784;9.174;2023-03-01T12:58:47;12.10;51.60
7562;DHT22;3822;48.784;9.174;2023-03-01T13:07:22;12.40;48.50
7562;DHT22;3822;48.784;9.174;2023-03-01T13:10:06;12.50;49.30
7562;DHT22;3822;48.784;9.174;2023-03-01T13:15:32;12.80;49.30
7562;DHT22;3822;48.784;9.174;2023-03-01T13:18:03;13.00;48.40
7562;DHT22;3822;48.784;9.174;2023-03-01T13:20:54;13.10;48.80
7562;DHT22;3822;48.784;9.174;2023-03-01T13:33:52;14.10;46.90
7562;DHT22;3822;48.784;9.174;2023-03-01T13:38:57;14.20;45.70
7562;DHT22;3822;48.784;9.174;2023-03-01T13:46:59;14.30;45.40
7562;DHT22;3822;48.784;9.174;2023-03-01T13:49:33;14.40;46.20
7562;DHT22;3822;48.784;9.174;2023-03-01T13:52:01;14.50;44.90
7562;DHT22;3822;48.784;9.174;2023-03-01T13:54:29;14.60;45.80
7562;DHT22;3822;48.784;9.174;2023-03-01T13:56:57;14.70;45.30
7562;DHT22;3822;48.784;9.174;2023-03-01T13:59:24;14.80;44.70
7562;DHT22;3822;48.784;9.174;2023-03-01T14:01:56;14.90;44.70
7562;DHT22;3822;48.784;9.174;2023-03-01T14:04:31;14.90;44.20
7562;DHT22;3822;48.784;9.174;2023-03-01T14:07:12;14.90;43.60
7562;DHT22;3822;48.784;9.174;2023-03-01T14:09:43;14.90;43.90
7562;DHT22;3822;48.784;9.174;2023-03-01T14:12:30;14.90;42.50
7562;DHT22;3822;48.784;9.174;2023-03-01T14:17:58;14.40;43.20
7562;DHT22;3822;48.784;9.174;2023-03-01T14:20:27;14.40;44.40
7562;DHT22;3822;48.784;9.174;2023-03-01T14:22:57;14.60;43.90
7562;DHT22;3822;48.784;9.174;2023-03-01T14:25:28;14.60;43.60
7562;DHT22;3822;48.784;9.174;2023-03-01T14:30:46;14.80;42.60
7562;DHT22;3822;48.784;9.174;2023-03-01T14:33:22;14.70;42.90
7562;DHT22;3822;48.784;9.174;2023-03-01T14:35:55;14.70;43.00
7562;DHT22;3822;48.784;9.174;2023-03-01T14:38:36;14.80;43.30
7562;DHT22;3822;48.784;9.174;2023-03-01T14:41:12;14.80;43.50
7562;DHT22;3822;48.784;9.174;2023-03-01T14:43:57;14.80;43.20
7562;DHT22;3822;48.784;9.174;2023-03-01T14:49:01;15.00;43.30
7562;DHT22;3822;48.784;9.174;2023-03-01T14:51:29;15.00;42.90
7562;DHT22;3822;48.784;9.174;2023-03-01T14:53:56;15.20;43.40
7562;DHT22;3822;48.784;9.174;2023-03-01T14:56:24;15.30;43.70
7562;DHT22;3822;48.784;9.174;2023-03-01T14:58:51;15.50;43.40
7562;DHT22;3822;48.784;9.174;2023-03-01T15:01:24;15.60;42.00
7562;DHT22;3822;48.784;9.174;2023-03-01T15:03:50;15.50;42.50
7562;DHT22;3822;48.784;9.174;2023-03-01T15:06:19;15.50;43.00
7562;DHT22;3822;48.784;9.174;2023-03-01T15:08:47;15.60;42.90
7562;DHT22;3822;48.784;9.174;2023-03-01T15:11:29;15.70;43.10
7562;DHT22;3822;48.784;9.174;2023-03-01T15:13:57;15.80;42.60
7562;DHT22;3822;48.784;9.174;2023-03-01T15:16:33;15.70;40.60
7562;DHT22;3822;48.784;9.174;2023-03-01T15:19:04;15.50;41.30
7562;DHT22;3822;48.784;9.174;2023-03-01T15:21:33;15.50;41.80
7562;DHT22;3822;48.784;9.174;2023-03-01T15:24:23;15.50;42.40
7562;DHT22;3822;48.784;9.174;2023-03-01T15:26:51;15.60;42.50
7562;DHT22;3822;48.784;9.174;2023-03-01T15:29:28;15.70;41.40
7562;DHT22;3822;48.784;9.174;2023-03-01T15:32:06;15.60;41.80
7562;DHT22;3822;48.784;9.174;2023-03-01T15:34:56;15.70;42.40
7562;DHT22;3822;48.784;9.174;2023-03-01T15:40:26;15.90;42.10
7562;DHT22;3822;48.784;9.174;2023-03-01T15:42:59;16.00;42.00
7562;DHT22;3822;48.784;9.174;2023-03-01T15:45:27;16.10;40.80
7562;DHT22;3822;48.784;9.174;2023-03-01T15:47:56;16.10;41.50
7562;DHT22;3822;48.784;9.174;2023-03-01T15:50:26;16.20;41.30
7562;DHT22;3822;48.784;9.174;2023-03-01T15:52:54;16.10;40.20
7562;DHT22;3822;48.784;9.174;2023-03-01T15:55:26;16.10;40.80
7562;DHT22;3822;48.784;9.174;2023-03-01T15:58:14;16.10;40.90
7562;DHT22;3822;48.784;9.174;2023-03-01T16:00:49;16.20;41.00
7562;DHT22;3822;48.784;9.174;2023-03-01T16:03:21;16.20;40.60
7562;DHT22;3822;48.784;9.174;2023-03-01T16:05:48;16.40;40.80
7562;DHT22;3822;48.784;9.174;2023-03-01T16:08:16;16.50;40.00
7562;DHT22;3822;48.784;9.174;2023-03-01T16:10:43;16.50;39.70
7562;DHT22;3822;48.784;9.174;2023-03-01T16:13:12;16.60;39.30
7562;DHT22;3822;48.784;9.174;2023-03-01T16:15:38;16.80;38.90
7562;DHT22;3822;48.784;9.174;2023-03-01T16:18:06;16.80;38.90
7562;DHT22;3822;48.784;9.174;2023-03-01T16:20:33;16.90;38.70
7562;DHT22;3822;48.784;9.174;2023-03-01T16:23:00;16.90;38.60
7562;DHT22;3822;48.784;9.174;2023-03-01T16:25:29;16.90;38.40
7562;DHT22;3822;48.784;9.174;2023-03-01T16:27:56;16.80;39.10
7562;DHT22;3822;48.784;9.174;2023-03-01T16:30:24;16.70;38.30
7562;DHT22;3822;48.784;9.174;2023-03-01T16:32:50;16.50;38.10
7562;DHT22;3822;48.784;9.174;2023-03-01T16:35:21;16.20;38.40
7562;DHT22;3822;48.784;9.174;2023-03-01T16:37:47;16.10;38.70
7562;DHT22;3822;48.784;9.174;2023-03-01T16:40:21;15.90;38.80
7562;DHT22;3822;48.784;9.174;2023-03-01T16:42:50;15.60;38.10
7562;DHT22;3822;48.784;9.174;2023-03-01T16:45:17;15.20;38.50
7562;DHT22;3822;48.784;9.174;2023-03-01T16:47:44;14.90;39.00
7562;DHT22;3822;48.784;9.174;2023-03-01T16:50:11;14.80;39.50
7562;DHT22;3822;48.784;9.174;2023-03-01T16:52:37;14.60;39.60
7562;DHT22;3822;48.784;9.174;2023-03-01T16:55:04;14.50;39.90
7562;DHT22;3822;48.784;9.174;2023-03-01T16:57:35;14.30;39.90
7562;DHT22;3822;48.784;9.174;2023-03-01T17:00:03;14.20;40.10
7562;DHT22;3822;48.784;9.174;2023-03-01T17:02:33;14.00;40.20
7562;DHT22;3822;48.784;9.174;2023-03-01T17:05:00;13.80;40.40
7562;DHT22;3822;48.784;9.174;2023-03-01T17:07:31;13.70;40.60
7562;DHT22;3822;48.784;9.174;2023-03-01T17:09:59;13.50;40.70
7562;DHT22;3822;48.784;9.174;2023-03-01T17:12:32;13.40;41.10
7562;DHT22;3822;48.784;9.174;2023-03-01T17:14:59;13.30;41.30
7562;DHT22;3822;48.784;9.174;2023-03-01T17:17:26;13.20;41.40
7562;DHT22;3822;48.784;9.174;2023-03-01T17:19:53;13.10;41.50
7562;DHT22;3822;48.784;9.174;2023-03-01T17:22:20;13.00;41.70
7562;DHT22;3822;48.784;9.174;2023-03-01T17:24:46;12.90;41.70
7562;DHT22;3822;48.784;9.174;2023-03-01T17:27:12;12.80;41.90
7562;DHT22;3822;48.784;9.174;2023-03-01T17:29:39;12.60;42.00
7562;DHT22;3822;48.784;9.174;2023-03-01T17:32:06;12.50;42.20
7562;DHT22;3822;48.784;9.174;2023-03-01T17:34:33;12.50;42.40
7562;DHT22;3822;48.784;9.174;2023-03-01T17:36:59;12.40;42.50
7562;DHT22;3822;48.784;9.174;2023-03-01T17:39:26;11.40;41.90
7562;DHT22;3822;48.784;9.174;2023-03-01T17:41:56;12.20;42.80
7562;DHT22;3822;48.784;9.174;2023-03-01T17:44:24;12.10;42.90
7562;DHT22;3822;48.784;9.174;2023-03-01T17:46:50;12.10;43.70
7562;DHT22;3822;48.784;9.174;2023-03-01T17:49:16;12.00;43.20
7562;DHT22;3822;48.784;9.174;2023-03-01T17:54:27;11.90;43.40
7562;DHT22;3822;48.784;9.174;2023-03-01T17:56:54;11.70;43.40
7562;DHT22;3822;48.784;9.174;2023-03-01T17:59:21;11.60;43.60
7562;DHT22;3822;48.784;9.174;2023-03-01T18:01:47;11.60;43.80
7562;DHT22;3822;48.784;9.174;2023-03-01T18:04:14;11.50;43.80
7562;DHT22;3822;48.784;9.174;2023-03-01T18:06:40;11.50;44.00
7562;DHT22;3822;48.784;9.174;2023-03-01T18:09:06;11.40;44.10
7562;DHT22;3822;48.784;9.174;2023-03-01T18:11:34;11.30;44.10
7562;DHT22;3822;48.784;9.174;2023-03-01T18:14:01;11.20;44.20
7562;DHT22;3822;48.784;9.174;2023-03-01T18:16:27;11.10;44.40
7562;DHT22;3822;48.784;9.174;2023-03-01T18:18:56;11.10;44.50
7562;DHT22;3822;48.784;9.174;2023-03-01T18:21:23;11.00;44.70
7562;DHT22;3822;48.784;9.174;2023-03-01T18:23:49;10.90;44.80
7562;DHT22;3822;48.784;9.174;2023-03-01T18:26:15;10.90;45.00
7562;DHT22;3822;48.784;9.174;2023-03-01T18:28:44;10.80;45.10
7562;DHT22;3822;48.784;9.174;2023-03-01T18:31:14;10.80;45.30
7562;DHT22;3822;48.784;9.174;2023-03-01T18:33:45;10.80;45.40
7562;DHT22;3822;48.784;9.174;2023-03-01T18:36:16;10.70;45.50
7562;DHT22;3822;48.784;9.174;2023-03-01T18:38:47;10.60;45.50
7562;DHT22;3822;48.784;9.174;2023-03-01T18:41:13;10.60;45.70
7562;DHT22;3822;48.784;9.174;2023-03-01T18:43:40;10.50;45.80
7562;DHT22;3822;48.784;9.174;2023-03-01T18:46:06;10.50;46.00
7562;DHT22;3822;48.784;9.174;2023-03-01T18:48:33;10.40;46.10
7562;DHT22;3822;48.784;9.174;2023-03-01T18:51:10;10.40;46.20
7562;DHT22;3822;48.784;9.174;2023-03-01T18:53:38;10.40;46.40
7562;DHT22;3822;48.784;9.174;2023-03-01T18:56:05;10.30;46.50
7562;DHT22;3822;48.784;9.174;2023-03-01T18:58:32;10.30;46.60
7562;DHT22;3822;48.784;9.174;2023-03-01T19:00:59;10.20;46.70